Time;durP1;ratioP1;P1;durP2;ratioP2;P2;SDS_P1;SDS_P2;PMS_P1;PMS_P2;Temp;Humidity;BMP_temperature;BMP_pressure;BME280_temperature;BME280_humidity;BME280_pressure;Samples;Min_cycle;Max_cycle;Signal;HPM_P1;HPM_P2
2023/10/30 00:00:20;;;;;;;1999.90;999.90;;;;;;;;;;5059836;28;20046;-88
2023/10/30 00:02:48;;;;;;;1999.90;999.90;;;;;;;;;;5060434;28;20048;-88
2023/10/30 00:05:15;;;;;;;1999.90;999.90;;;;;;;;;;5059929;28;20102;-87
2023/10/30 00:07:42;;;;;;;1999.90;999.90;;;;;;;;;;5057706;28;20056;-89
2023/10/30 00:10:09;;;;;;;1999.90;999.90;;;;;;;;;;5058433;28;20040;-89
2023/10/30 00:12:36;;;;;;;1999.90;999.90;;;;;;;;;;5056795;28;20420;-88
2023/10/30 00:15:03;;;;;;;1999.90;999.90;;;;;;;;;;5062190;28;20045;-87
2023/10/30 00:17:30;;;;;;;1999.90;999.90;;;;;;;;;;5062024;28;20045;-87
2023/10/30 00:19:58;;;;;;;1999.90;999.90;;;;;;;;;;5060799;28;20048;-87
2023/10/30 00:22:25;;;;;;;1999.90;999.90;;;;;;;;;;5059586;28;20037;-88
2023/10/30 00:24:52;;;;;;;1999.90;999.90;;;;;;;;;;5062144;28;20053;-88
2023/10/30 00:27:18;;;;;;;1999.90;999.90;;;;;;;;;;5061214;28;20060;-88
2023/10/30 00:29:45;;;;;;;1999.90;999.90;;;;;;;;;;5060671;28;20048;-87
2023/10/30 00:32:11;;;;;;;1999.90;999.90;;;;;;;;;;5065640;28;20049;-87
2023/10/30 00:34:39;;;;;;;1999.90;999.90;;;;;;;;;;5062928;28;20056;-88
2023/10/30 00:37:07;;;;;;;1999.90;999.90;;;;;;;;;;5063608;28;20056;-87
2023/10/30 00:39:33;;;;;;;1999.90;999.90;;;;;;;;;;5061267;28;20125;-87
2023/10/30 00:42:00;;;;;;;1999.90;999.90;;;;;;;;;;5062130;28;20498;-87
2023/10/30 00:44:27;;;;;;;1999.90;999.90;;;;;;;;;;5061222;28;20095;-86
2023/10/30 00:46:53;;;;;;;1999.90;999.90;;;;;;;;;;5059868;28;20052;-87
2023/10/30 00:49:20;;;;;;;1999.90;999.90;;;;;;;;;;5063990;28;20135;-88
2023/10/30 00:51:47;;;;;;;1999.90;999.90;;;;;;;;;;5062380;28;20040;-87
2023/10/30 00:54:15;;;;;;;1999.90;999.90;;;;;;;;;;5064140;28;20049;-86
2023/10/30 00:56:41;;;;;;;1999.90;999.90;;;;;;;;;;5061628;28;20049;-86
2023/10/30 00:59:08;;;;;;;1999.90;999.90;;;;;;;;;;5061775;28;20541;-87
2023/10/30 01:01:34;;;;;;;1999.90;999.90;;;;;;;;;;5058655;28;20048;-88
2023/10/30 01:04:01;;;;;;;1999.90;999.90;;;;;;;;;;5062477;28;20048;-87
2023/10/30 01:06:27;;;;;;;1999.90;999.90;;;;;;;;;;5060864;28;20045;-87
2023/10/30 01:08:54;;;;;;;1999.90;999.90;;;;;;;;;;5063030;28;20056;-88
2023/10/30 01:11:22;;;;;;;1999.90;999.90;;;;;;;;;;5061248;28;20045;-87
2023/10/30 01:13:48;;;;;;;1999.90;999.90;;;;;;;;;;5061375;28;20055;-87
2023/10/30 01:16:15;;;;;;;1999.90;999.90;;;;;;;;;;5062763;28;20059;-87
2023/10/30 01:18:41;;;;;;;1999.90;999.90;;;;;;;;;;5062119;28;20412;-87
2023/10/30 01:21:12;;;;;;;1999.90;999.90;;;;;;;;;;5063319;28;20040;-88
2023/10/30 01:23:38;;;;;;;1999.90;999.90;;;;;;;;;;5062448;28;20507;-87
2023/10/30 01:26:05;;;;;;;1999.90;999.90;;;;;;;;;;5057957;28;20060;-87
2023/10/30 01:28:33;;;;;;;1999.90;999.90;;;;;;;;;;5059389;28;20063;-87
2023/10/30 01:30:59;;;;;;;1999.90;999.90;;;;;;;;;;5060054;28;20049;-86
2023/10/30 01:33:26;;;;;;;1999.90;999.90;;;;;;;;;;5058105;28;20541;-87
2023/10/30 01:35:53;;;;;;;1999.90;999.90;;;;;;;;;;5061470;28;20041;-87
2023/10/30 01:38:19;;;;;;;1999.90;999.90;;;;;;;;;;5062580;28;20067;-87
2023/10/30 01:40:49;;;;;;;1999.90;999.90;;;;;;;;;;5060964;28;20063;-86
2023/10/30 01:43:16;;;;;;;1999.90;999.90;;;;;;;;;;5059576;28;20045;-85
2023/10/30 01:45:44;;;;;;;1999.90;999.90;;;;;;;;;;5062051;28;20052;-87
2023/10/30 01:48:11;;;;;;;1999.90;999.90;;;;;;;;;;5061174;28;20056;-86
2023/10/30 01:50:38;;;;;;;1999.90;999.90;;;;;;;;;;5062330;28;20048;-87
2023/10/30 01:53:05;;;;;;;1999.90;999.90;;;;;;;;;;5056839;28;20048;-86
2023/10/30 01:55:31;;;;;;;1999.90;999.90;;;;;;;;;;5058454;28;20056;-86
2023/10/30 01:57:57;;;;;;;1999.90;999.90;;;;;;;;;;5061539;28;20055;-87
2023/10/30 02:00:24;;;;;;;1999.90;999.90;;;;;;;;;;5062461;28;20076;-86
2023/10/30 02:02:53;;;;;;;1999.90;999.90;;;;;;;;;;5063138;28;20051;-86
2023/10/30 02:05:20;;;;;;;1999.90;999.90;;;;;;;;;;5059370;28;20044;-86
2023/10/30 02:07:46;;;;;;;1999.90;999.90;;;;;;;;;;5061227;28;20056;-87
2023/10/30 02:10:13;;;;;;;1999.90;999.90;;;;;;;;;;5058211;28;20052;-87
2023/10/30 02:12:42;;;;;;;1999.90;999.90;;;;;;;;;;5061000;28;20041;-86
2023/10/30 02:15:09;;;;;;;1999.90;999.90;;;;;;;;;;5053353;28;20040;-87
2023/10/30 02:17:36;;;;;;;1999.90;999.90;;;;;;;;;;5061471;28;20048;-86
2023/10/30 02:20:03;;;;;;;1999.90;999.90;;;;;;;;;;5061507;28;20048;-86
2023/10/30 02:22:30;;;;;;;1999.90;999.90;;;;;;;;;;5062714;28;20048;-86
2023/10/30 02:24:56;;;;;;;1999.90;999.90;;;;;;;;;;5060514;28;20497;-86
2023/10/30 02:27:25;;;;;;;1999.90;999.90;;;;;;;;;;5060294;28;20040;-86
2023/10/30 02:29:51;;;;;;;1999.90;999.90;;;;;;;;;;5062471;28;20516;-86
2023/10/30 02:32:18;;;;;;;1999.90;999.90;;;;;;;;;;5062516;28;20053;-85
2023/10/30 02:34:44;;;;;;;1999.90;999.90;;;;;;;;;;5060951;28;20410;-87
2023/10/30 02:37:11;;;;;;;1999.90;999.90;;;;;;;;;;5058879;28;20052;-85
2023/10/30 02:39:37;;;;;;;1999.90;999.90;;;;;;;;;;5059822;28;20044;-85
2023/10/30 02:42:04;;;;;;;1999.90;999.90;;;;;;;;;;5057726;28;20514;-87
2023/10/30 02:44:32;;;;;;;1999.90;999.90;;;;;;;;;;5062903;28;20048;-85
2023/10/30 02:46:59;;;;;;;1999.90;999.90;;;;;;;;;;5061476;28;20096;-85
2023/10/30 02:49:25;;;;;;;1999.90;999.90;;;;;;;;;;5060307;28;20045;-87
2023/10/30 02:51:52;;;;;;;1999.90;999.90;;;;;;;;;;5061510;28;20052;-87
2023/10/30 02:54:18;;;;;;;1999.90;999.90;;;;;;;;;;5057256;28;20062;-86
2023/10/30 02:56:45;;;;;;;1999.90;999.90;;;;;;;;;;5061610;28;20049;-88
2023/10/30 02:59:12;;;;;;;1999.90;999.90;;;;;;;;;;5060855;28;20048;-87
2023/10/30 03:01:41;;;;;;;1999.90;999.90;;;;;;;;;;5056897;28;20052;-88
2023/10/30 03:04:07;;;;;;;1999.90;999.90;;;;;;;;;;5064146;28;20044;-87
2023/10/30 03:06:34;;;;;;;1999.90;999.90;;;;;;;;;;5061805;28;20060;-86
2023/10/30 03:09:00;;;;;;;1999.90;999.90;;;;;;;;;;5053988;28;20393;-86
2023/10/30 03:11:27;;;;;;;1999.90;999.90;;;;;;;;;;5057612;28;20049;-87
2023/10/30 03:13:53;;;;;;;1999.90;999.90;;;;;;;;;;5062890;28;20499;-87
2023/10/30 03:16:20;;;;;;;1999.90;999.90;;;;;;;;;;5059715;28;20049;-88
2023/10/30 03:18:48;;;;;;;1999.90;999.90;;;;;;;;;;5062600;28;20056;-87
2023/10/30 03:21:14;;;;;;;1999.90;999.90;;;;;;;;;;5060047;28;20045;-86
2023/10/30 03:23:41;;;;;;;1999.90;999.90;;;;;;;;;;5059648;28;20051;-87
2023/10/30 03:26:08;;;;;;;1999.90;999.90;;;;;;;;;;5057712;28;20053;-87
2023/10/30 03:28:34;;;;;;;1999.90;999.90;;;;;;;;;;5055638;28;20045;-87
2023/10/30 03:31:05;;;;;;;1999.90;999.90;;;;;;;;;;5057184;28;20059;-88
2023/10/30 03:33:32;;;;;;;1999.90;999.90;;;;;;;;;;5056358;28;20056;-88
2023/10/30 03:36:00;;;;;;;1999.90;999.90;;;;;;;;;;5060944;28;20061;-87
2023/10/30 03:38:26;;;;;;;1999.90;999.90;;;;;;;;;;5062806;28;20048;-88
2023/10/30 03:40:53;;;;;;;1999.90;999.90;;;;;;;;;;5058251;28;20392;-88
2023/10/30 03:43:19;;;;;;;1999.90;999.90;;;;;;;;;;5060124;28;20057;-88
2023/10/30 03:45:46;;;;;;;1999.90;999.90;;;;;;;;;;5056844;28;20115;-87
2023/10/30 03:48:12;;;;;;;1999.90;999.90;;;;;;;;;;5061328;28;20041;-88
2023/10/30 03:50:39;;;;;;;1999.90;999.90;;;;;;;;;;5061649;28;20056;-88
2023/10/30 03:53:07;;;;;;;1999.90;999.90;;;;;;;;;;5056178;28;20068;-87
2023/10/30 03:55:33;;;;;;;1999.90;999.90;;;;;;;;;;5061748;28;20055;-87
2023/10/30 03:58:01;;;;;;;1999.90;999.90;;;;;;;;;;5059135;28;20051;-88
2023/10/30 04:00:28;;;;;;;1999.90;999.90;;;;;;;;;;5064528;28;20127;-87
2023/10/30 04:02:55;;;;;;;1999.90;999.90;;;;;;;;;;5070353;28;20505;-89
2023/10/30 04:05:22;;;;;;;1999.90;999.90;;;;;;;;;;5070054;28;20489;-89
2023/10/30 04:07:48;;;;;;;1999.90;999.90;;;;;;;;;;5071077;28;20049;-88
2023/10/30 04:10:16;;;;;;;1999.90;999.90;;;;;;;;;;5071697;28;20055;-89
2023/10/30 04:12:43;;;;;;;1999.90;999.90;;;;;;;;;;5069794;28;20056;-88
2023/10/30 04:15:09;;;;;;;1999.90;999.90;;;;;;;;;;5063156;28;20051;-88
2023/10/30 04:17:35;;;;;;;1999.90;999.90;;;;;;;;;;5063896;28;20131;-88
2023/10/30 04:20:02;;;;;;;1999.90;999.90;;;;;;;;;;5064667;28;20049;-88
2023/10/30 04:22:28;;;;;;;1999.90;999.90;;;;;;;;;;5064565;28;20041;-88
2023/10/30 04:24:55;;;;;;;1999.90;999.90;;;;;;;;;;5062381;28;20064;-89
2023/10/30 04:27:23;;;;;;;1999.90;999.90;;;;;;;;;;5064451;28;20507;-87
2023/10/30 04:29:50;;;;;;;1999.90;999.90;;;;;;;;;;5062789;28;20415;-87
2023/10/30 04:32:16;;;;;;;1999.90;999.90;;;;;;;;;;5060611;28;20477;-87
2023/10/30 04:34:43;;;;;;;1999.90;999.90;;;;;;;;;;5070008;28;20041;-88
2023/10/30 04:37:09;;;;;;;1999.90;999.90;;;;;;;;;;5062604;28;20044;-89
2023/10/30 04:39:36;;;;;;;1999.90;999.90;;;;;;;;;;5061112;28;20382;-89
2023/10/30 04:42:02;;;;;;;1999.90;999.90;;;;;;;;;;5061724;28;20048;-89
2023/10/30 04:44:30;;;;;;;1999.90;999.90;;;;;;;;;;5059224;28;20420;-88
2023/10/30 04:46:57;;;;;;;1999.90;999.90;;;;;;;;;;5065887;28;20493;-89
2023/10/30 04:49:23;;;;;;;1999.90;999.90;;;;;;;;;;5065341;28;20051;-89
2023/10/30 04:51:50;;;;;;;1999.90;999.90;;;;;;;;;;5060561;28;20520;-88
2023/10/30 04:54:16;;;;;;;1999.90;999.90;;;;;;;;;;5058615;28;20069;-89
2023/10/30 04:56:43;;;;;;;1999.90;999.90;;;;;;;;;;5061147;28;20037;-88
2023/10/30 04:59:09;;;;;;;1999.90;999.90;;;;;;;;;;5059826;28;20041;-88
2023/10/30 05:01:37;;;;;;;1999.90;999.90;;;;;;;;;;5062251;28;20052;-87
2023/10/30 05:04:04;;;;;;;1999.90;999.90;;;;;;;;;;5061271;28;20053;-87
2023/10/30 05:06:31;;;;;;;1999.90;999.90;;;;;;;;;;5062209;28;20045;-88
2023/10/30 05:08:57;;;;;;;1999.90;999.90;;;;;;;;;;5062498;28;20052;-87
2023/10/30 05:11:24;;;;;;;1999.90;999.90;;;;;;;;;;5060105;28;20049;-87
2023/10/30 05:13:50;;;;;;;1999.90;999.90;;;;;;;;;;5065006;28;20512;-88
2023/10/30 05:16:17;;;;;;;1999.90;999.90;;;;;;;;;;5058438;28;20052;-88
2023/10/30 05:18:45;;;;;;;1999.90;999.90;;;;;;;;;;5062090;28;20397;-88
2023/10/30 05:21:11;;;;;;;1999.90;999.90;;;;;;;;;;5061488;28;20163;-86
2023/10/30 05:23:38;;;;;;;1999.90;999.90;;;;;;;;;;5061186;28;20041;-88
2023/10/30 05:26:04;;;;;;;1999.90;999.90;;;;;;;;;;5061161;28;20048;-86
2023/10/30 05:28:31;;;;;;;1999.90;999.90;;;;;;;;;;5062310;28;20041;-88
2023/10/30 05:30:58;;;;;;;1999.90;999.90;;;;;;;;;;5061420;28;20048;-89
2023/10/30 05:33:25;;;;;;;1999.90;999.90;;;;;;;;;;5064620;28;20052;-88
2023/10/30 05:35:53;;;;;;;1999.90;999.90;;;;;;;;;;5065316;28;20048;-88
2023/10/30 05:38:19;;;;;;;1999.90;999.90;;;;;;;;;;5061765;28;20045;-88
2023/10/30 05:40:46;;;;;;;1999.90;999.90;;;;;;;;;;5059273;28;20516;-87
2023/10/30 05:43:13;;;;;;;1999.90;999.90;;;;;;;;;;5060631;28;20058;-89
2023/10/30 05:45:39;;;;;;;1999.90;999.90;;;;;;;;;;5056775;28;20469;-89
2023/10/30 05:48:06;;;;;;;1999.90;999.90;;;;;;;;;;5062028;28;20501;-87
2023/10/30 05:50:33;;;;;;;1999.90;999.90;;;;;;;;;;5063317;28;20076;-88
2023/10/30 05:53:01;;;;;;;1999.90;999.90;;;;;;;;;;5061188;28;20053;-86
2023/10/30 05:55:28;;;;;;;1999.90;999.90;;;;;;;;;;5059702;28;20041;-88
2023/10/30 05:57:54;;;;;;;1999.90;999.90;;;;;;;;;;5060633;28;20067;-87
2023/10/30 06:00:21;;;;;;;1999.90;999.90;;;;;;;;;;5060460;28;20061;-87
2023/10/30 06:02:48;;;;;;;1999.90;999.90;;;;;;;;;;5061143;28;20052;-88
2023/10/30 06:05:15;;;;;;;1999.90;999.90;;;;;;;;;;5057924;28;20045;-88
2023/10/30 06:07:42;;;;;;;1999.90;999.90;;;;;;;;;;5057957;28;20434;-87
2023/10/30 06:10:10;;;;;;;1999.90;999.90;;;;;;;;;;5061591;28;20459;-88
2023/10/30 06:12:37;;;;;;;1999.90;999.90;;;;;;;;;;5061600;28;20194;-87
2023/10/30 06:15:04;;;;;;;1999.90;999.90;;;;;;;;;;5058865;28;20048;-87
2023/10/30 06:17:31;;;;;;;1999.90;999.90;;;;;;;;;;5060275;28;20052;-87
2023/10/30 06:19:57;;;;;;;1999.90;999.90;;;;;;;;;;5058742;28;20540;-87
2023/10/30 06:22:24;;;;;;;1999.90;999.90;;;;;;;;;;5058495;28;20055;-88
2023/10/30 06:24:51;;;;;;;1999.90;999.90;;;;;;;;;;5064471;28;20052;-86
2023/10/30 06:27:18;;;;;;;1999.90;999.90;;;;;;;;;;5062026;28;20426;-88
2023/10/30 06:29:45;;;;;;;1999.90;999.90;;;;;;;;;;5062878;28;20398;-86
2023/10/30 06:32:11;;;;;;;1999.90;999.90;;;;;;;;;;5060413;28;20501;-86
2023/10/30 06:34:39;;;;;;;1999.90;999.90;;;;;;;;;;5060989;28;20048;-82
2023/10/30 06:37:05;;;;;;;1999.90;999.90;;;;;;;;;;5058401;28;20546;-82
2023/10/30 06:39:32;;;;;;;1999.90;999.90;;;;;;;;;;5059241;28;20052;-84
2023/10/30 06:41:58;;;;;;;1999.90;999.90;;;;;;;;;;5059457;28;20059;-82
2023/10/30 06:44:26;;;;;;;1999.90;999.90;;;;;;;;;;5059673;28;20040;-81
2023/10/30 06:46:53;;;;;;;1999.90;999.90;;;;;;;;;;5063068;28;20057;-82
2023/10/30 06:49:20;;;;;;;1999.90;999.90;;;;;;;;;;5058735;28;20045;-83
2023/10/30 06:51:46;;;;;;;1999.90;999.90;;;;;;;;;;5061358;28;20658;-83
2023/10/30 06:54:13;;;;;;;1999.90;999.90;;;;;;;;;;5057947;28;20044;-83
2023/10/30 06:56:40;;;;;;;1999.90;999.90;;;;;;;;;;5057352;28;20042;-83
2023/10/30 06:59:09;;;;;;;1999.90;999.90;;;;;;;;;;5064808;28;20060;-81
2023/10/30 07:01:43;;;;;;;1999.90;999.90;;;;;;;;;;5064261;28;20044;-81
2023/10/30 07:04:10;;;;;;;1999.90;999.90;;;;;;;;;;5060256;28;20044;-81
2023/10/30 07:06:37;;;;;;;1999.90;999.90;;;;;;;;;;5065722;28;20459;-83
2023/10/30 07:09:06;;;;;;;1999.90;999.90;;;;;;;;;;5062139;28;20504;-81
2023/10/30 07:11:33;;;;;;;1999.90;999.90;;;;;;;;;;5067572;28;20053;-82
2023/10/30 07:14:01;;;;;;;1999.90;999.90;;;;;;;;;;5060978;28;20041;-82
2023/10/30 07:16:28;;;;;;;1999.90;999.90;;;;;;;;;;5060165;28;20489;-83
2023/10/30 07:18:56;;;;;;;1999.90;999.90;;;;;;;;;;5060950;28;20361;-82
2023/10/30 07:21:22;;;;;;;1999.90;999.90;;;;;;;;;;5057886;28;20409;-83
2023/10/30 07:23:49;;;;;;;1999.90;999.90;;;;;;;;;;5057536;28;20052;-83
2023/10/30 07:26:16;;;;;;;1999.90;999.90;;;;;;;;;;5058801;28;20075;-83
2023/10/30 07:28:43;;;;;;;1999.90;999.90;;;;;;;;;;5056615;28;20049;-83
2023/10/30 07:31:10;;;;;;;1999.90;999.90;;;;;;;;;;5059898;28;20051;-83
2023/10/30 07:33:36;;;;;;;1999.90;999.90;;;;;;;;;;5059129;28;20076;-82
2023/10/30 07:36:05;;;;;;;1999.90;999.90;;;;;;;;;;5055923;28;20044;-82
2023/10/30 07:38:31;;;;;;;1999.90;999.90;;;;;;;;;;5058121;28;20135;-82
2023/10/30 07:40:58;;;;;;;1999.90;999.90;;;;;;;;;;5056985;28;20057;-82
2023/10/30 07:43:28;;;;;;;1999.90;999.90;;;;;;;;;;5057080;28;20045;-83
2023/10/30 07:45:54;;;;;;;1999.90;999.90;;;;;;;;;;5056794;28;20075;-82
2023/10/30 07:48:21;;;;;;;1999.90;999.90;;;;;;;;;;5062829;28;20090;-84
2023/10/30 07:50:48;;;;;;;1999.90;999.90;;;;;;;;;;5065414;28;20057;-83
2023/10/30 07:53:16;;;;;;;1999.90;999.90;;;;;;;;;;5066373;28;20076;-85
2023/10/30 07:55:42;;;;;;;1999.90;999.90;;;;;;;;;;5063798;28;20063;-83
2023/10/30 07:58:09;;;;;;;1999.90;999.90;;;;;;;;;;5065710;28;20551;-82
2023/10/30 08:00:38;;;;;;;1999.90;999.90;;;;;;;;;;5062474;28;20103;-83
2023/10/30 08:03:05;;;;;;;1999.90;999.90;;;;;;;;;;5067139;28;20053;-83
2023/10/30 08:05:32;;;;;;;1999.90;999.90;;;;;;;;;;5065412;28;20437;-83
2023/10/30 08:07:59;;;;;;;1999.90;999.90;;;;;;;;;;5060394;28;20059;-84
2023/10/30 08:10:27;;;;;;;1999.90;999.90;;;;;;;;;;5062961;28;20045;-83
2023/10/30 08:12:53;;;;;;;1999.90;999.90;;;;;;;;;;5063784;28;20098;-82
2023/10/30 08:15:20;;;;;;;1999.90;999.90;;;;;;;;;;5058694;28;20489;-84
2023/10/30 08:17:47;;;;;;;1999.90;999.90;;;;;;;;;;5060025;28;20852;-85
2023/10/30 08:20:13;;;;;;;1999.90;999.90;;;;;;;;;;5057471;28;20058;-84
2023/10/30 08:22:40;;;;;;;1999.90;999.90;;;;;;;;;;5058689;28;20049;-84
2023/10/30 08:25:06;;;;;;;1999.90;999.90;;;;;;;;;;5060071;28;20437;-84
2023/10/30 08:27:35;;;;;;;1999.90;999.90;;;;;;;;;;5060368;28;20087;-83
2023/10/30 08:30:02;;;;;;;1999.90;999.90;;;;;;;;;;5058715;28;20496;-83
2023/10/30 08:32:29;;;;;;;1999.90;999.90;;;;;;;;;;5060484;28;20064;-85
2023/10/30 08:34:56;;;;;;;1999.90;999.90;;;;;;;;;;5061384;28;20053;-84
2023/10/30 08:37:22;;;;;;;1999.90;999.90;;;;;;;;;;5059828;28;20044;-85
2023/10/30 08:39:49;;;;;;;1999.90;999.90;;;;;;;;;;5061173;28;20046;-86
2023/10/30 08:42:15;;;;;;;1999.90;999.90;;;;;;;;;;5065278;28;20049;-85
2023/10/30 08:44:43;;;;;;;1999.90;999.90;;;;;;;;;;5063904;28;20504;-86
2023/10/30 08:47:10;;;;;;;1999.90;999.90;;;;;;;;;;5068674;28;20052;-87
2023/10/30 08:49:36;;;;;;;1999.90;999.90;;;;;;;;;;5070899;28;20072;-84
2023/10/30 08:52:03;;;;;;;1999.90;999.90;;;;;;;;;;5064751;28;20074;-84
2023/10/30 08:54:30;;;;;;;1999.90;999.90;;;;;;;;;;5068119;28;20068;-84
2023/10/30 08:56:56;;;;;;;1999.90;999.90;;;;;;;;;;5059357;28;20060;-86
2023/10/30 08:59:24;;;;;;;1999.90;999.90;;;;;;;;;;5066575;28;20393;-84
2023/10/30 09:01:51;;;;;;;1999.90;999.90;;;;;;;;;;5066715;28;20080;-82
2023/10/30 09:04:18;;;;;;;1999.90;999.90;;;;;;;;;;5070005;28;20503;-84
2023/10/30 09:06:45;;;;;;;1999.90;999.90;;;;;;;;;;5064852;28;20075;-84
2023/10/30 09:09:12;;;;;;;1999.90;999.90;;;;;;;;;;5063626;28;20110;-82
2023/10/30 09:11:38;;;;;;;1999.90;999.90;;;;;;;;;;5070421;28;20056;-81
2023/10/30 09:14:05;;;;;;;1999.90;999.90;;;;;;;;;;5065100;28;20106;-80
2023/10/30 09:16:31;;;;;;;1999.90;999.90;;;;;;;;;;5066577;28;20049;-82
2023/10/30 09:18:59;;;;;;;1999.90;999.90;;;;;;;;;;5069744;28;20048;-81
2023/10/30 09:21:26;;;;;;;1999.90;999.90;;;;;;;;;;5065127;28;20569;-80
2023/10/30 09:23:52;;;;;;;1999.90;999.90;;;;;;;;;;5069626;28;20051;-82
2023/10/30 09:26:19;;;;;;;1999.90;999.90;;;;;;;;;;5068135;28;20056;-83
2023/10/30 09:28:45;;;;;;;1999.90;999.90;;;;;;;;;;5058946;28;20041;-82
2023/10/30 09:31:12;;;;;;;1999.90;999.90;;;;;;;;;;5069204;28;20054;-84
2023/10/30 09:33:38;;;;;;;1999.90;999.90;;;;;;;;;;5065084;28;20059;-82
2023/10/30 09:36:07;;;;;;;1999.90;999.90;;;;;;;;;;5068207;28;20048;-80
2023/10/30 09:38:34;;;;;;;1999.90;999.90;;;;;;;;;;5062960;28;20044;-82
2023/10/30 09:41:04;;;;;;;1999.90;999.90;;;;;;;;;;5066428;28;20040;-80
2023/10/30 09:43:30;;;;;;;1999.90;999.90;;;;;;;;;;5065318;28;20072;-83
2023/10/30 09:45:58;;;;;;;1999.90;999.90;;;;;;;;;;5067918;28;20055;-85
2023/10/30 09:48:25;;;;;;;1999.90;999.90;;;;;;;;;;5068903;28;20047;-82
2023/10/30 09:50:52;;;;;;;1999.90;999.90;;;;;;;;;;5063299;28;20048;-84
2023/10/30 09:53:20;;;;;;;1999.90;999.90;;;;;;;;;;5062167;28;20057;-85
2023/10/30 09:55:48;;;;;;;1999.90;999.90;;;;;;;;;;5062845;28;20045;-83
2023/10/30 09:58:15;;;;;;;1999.90;999.90;;;;;;;;;;5056576;28;20052;-83
2023/10/30 10:00:45;;;;;;;1999.90;999.90;;;;;;;;;;5057575;28;20493;-85
2023/10/30 10:03:12;;;;;;;1999.90;999.90;;;;;;;;;;5057912;28;20423;-83
2023/10/30 10:05:38;;;;;;;1999.90;999.90;;;;;;;;;;5061830;28;20052;-85
2023/10/30 10:08:05;;;;;;;1999.90;999.90;;;;;;;;;;5059018;28;20048;-82
2023/10/30 10:10:54;;;;;;;1999.90;999.90;;;;;;;;;;5060949;28;20055;-86
2023/10/30 10:13:20;;;;;;;1999.90;999.90;;;;;;;;;;5057858;28;20055;-84
2023/10/30 10:15:47;;;;;;;1999.90;999.90;;;;;;;;;;5059134;28;20047;-86
2023/10/30 10:18:23;;;;;;;1999.90;999.90;;;;;;;;;;5059519;28;20048;-83
2023/10/30 10:20:55;;;;;;;1999.90;999.90;;;;;;;;;;5059589;28;20048;-84
2023/10/30 10:23:22;;;;;;;1999.90;999.90;;;;;;;;;;5055653;28;20045;-85
2023/10/30 10:25:56;;;;;;;1999.90;999.90;;;;;;;;;;5064253;28;20110;-83
2023/10/30 10:28:23;;;;;;;1999.90;999.90;;;;;;;;;;5056604;28;20055;-82
2023/10/30 10:30:49;;;;;;;1999.90;999.90;;;;;;;;;;5065496;28;20048;-82
2023/10/30 10:33:16;;;;;;;1999.90;999.90;;;;;;;;;;5061026;28;20055;-84
2023/10/30 10:35:43;;;;;;;1999.90;999.90;;;;;;;;;;5062335;28;20040;-84
2023/10/30 10:38:11;;;;;;;1999.90;999.90;;;;;;;;;;5063453;28;20051;-84
2023/10/30 10:40:38;;;;;;;1999.90;999.90;;;;;;;;;;5059461;28;20136;-82
2023/10/30 10:43:07;;;;;;;1999.90;999.90;;;;;;;;;;5058827;28;20040;-83
2023/10/30 10:45:33;;;;;;;1999.90;999.90;;;;;;;;;;5065633;28;20047;-85
2023/10/30 10:48:00;;;;;;;1999.90;999.90;;;;;;;;;;5069713;28;20511;-85
2023/10/30 10:50:26;;;;;;;1999.90;999.90;;;;;;;;;;5064302;28;20045;-87
2023/10/30 10:52:55;;;;;;;1999.90;999.90;;;;;;;;;;5061190;28;20053;-83
2023/10/30 10:55:24;;;;;;;1999.90;999.90;;;;;;;;;;5065138;28;20044;-85
2023/10/30 10:57:57;;;;;;;1999.90;999.90;;;;;;;;;;5052514;28;20110;-84
2023/10/30 11:00:28;;;;;;;1999.90;999.90;;;;;;;;;;5062127;28;20049;-82
2023/10/30 11:02:55;;;;;;;1999.90;999.90;;;;;;;;;;5055883;28;20389;-85
2023/10/30 11:05:26;;;;;;;1999.90;999.90;;;;;;;;;;5059301;28;20052;-83
2023/10/30 11:07:58;;;;;;;1999.90;999.90;;;;;;;;;;5062900;28;20465;-83
2023/10/30 11:10:30;;;;;;;1999.90;999.90;;;;;;;;;;5060855;28;20053;-86
2023/10/30 11:13:03;;;;;;;1999.90;999.90;;;;;;;;;;5058786;28;20508;-86
2023/10/30 11:15:35;;;;;;;1999.90;999.90;;;;;;;;;;5060122;28;20129;-85
2023/10/30 11:18:15;;;;;;;1999.90;999.90;;;;;;;;;;5057461;28;20053;-83
2023/10/30 11:20:42;;;;;;;1999.90;999.90;;;;;;;;;;5057819;28;20484;-86
2023/10/30 11:23:09;;;;;;;1999.90;999.90;;;;;;;;;;5061010;28;20056;-83
2023/10/30 11:25:47;;;;;;;1999.90;999.90;;;;;;;;;;5059177;28;20093;-84
2023/10/30 11:28:14;;;;;;;1999.90;999.90;;;;;;;;;;5058822;28;20076;-84
2023/10/30 11:30:45;;;;;;;1999.90;999.90;;;;;;;;;;5061071;28;20044;-84
2023/10/30 11:33:19;;;;;;;1999.90;999.90;;;;;;;;;;5060633;28;20501;-86
2023/10/30 11:35:46;;;;;;;1999.90;999.90;;;;;;;;;;5060505;28;20090;-84
2023/10/30 11:38:12;;;;;;;1999.90;999.90;;;;;;;;;;5062918;28;20048;-86
2023/10/30 11:40:39;;;;;;;1999.90;999.90;;;;;;;;;;5058916;28;20056;-86
2023/10/30 11:43:10;;;;;;;1999.90;999.90;;;;;;;;;;5066181;28;20497;-82
2023/10/30 11:45:40;;;;;;;1999.90;999.90;;;;;;;;;;5064159;28;20117;-84
2023/10/30 11:48:08;;;;;;;1999.90;999.90;;;;;;;;;;5066959;28;20049;-83
2023/10/30 11:50:35;;;;;;;1999.90;999.90;;;;;;;;;;5064155;28;20040;-85
2023/10/30 11:53:08;;;;;;;1999.90;999.90;;;;;;;;;;5067352;28;20051;-86
2023/10/30 11:55:36;;;;;;;1999.90;999.90;;;;;;;;;;5070189;28;20094;-84
2023/10/30 11:58:03;;;;;;;1999.90;999.90;;;;;;;;;;5075241;28;20045;-83
2023/10/30 12:00:30;;;;;;;1999.90;999.90;;;;;;;;;;5064842;28;20056;-83
2023/10/30 12:02:56;;;;;;;1999.90;999.90;;;;;;;;;;5065647;28;20387;-85
2023/10/30 12:05:27;;;;;;;1999.90;999.90;;;;;;;;;;5062577;28;20063;-88
2023/10/30 12:07:53;;;;;;;1999.90;999.90;;;;;;;;;;5064983;28;20041;-85
2023/10/30 12:10:20;;;;;;;1999.90;999.90;;;;;;;;;;5059277;28;20049;-83
2023/10/30 12:12:46;;;;;;;1999.90;999.90;;;;;;;;;;5061933;28;20056;-85
2023/10/30 12:15:13;;;;;;;1999.90;999.90;;;;;;;;;;5058336;28;20059;-84
2023/10/30 12:17:40;;;;;;;1999.90;999.90;;;;;;;;;;5063942;28;20036;-84
2023/10/30 12:20:08;;;;;;;1999.90;999.90;;;;;;;;;;5061150;28;20041;-86
2023/10/30 12:22:41;;;;;;;1999.90;999.90;;;;;;;;;;5068209;28;20055;-86
2023/10/30 12:25:08;;;;;;;1999.90;999.90;;;;;;;;;;5062390;28;20040;-86
2023/10/30 12:27:35;;;;;;;1999.90;999.90;;;;;;;;;;5065800;28;20049;-86
2023/10/30 12:30:10;;;;;;;1999.90;999.90;;;;;;;;;;5062174;28;20044;-89
2023/10/30 12:32:36;;;;;;;1999.90;999.90;;;;;;;;;;5065106;28;20049;-82
2023/10/30 12:35:13;;;;;;;1999.90;999.90;;;;;;;;;;5062661;28;20427;-83
2023/10/30 12:37:41;;;;;;;1999.90;999.90;;;;;;;;;;5064680;28;20412;-83
2023/10/30 12:40:09;;;;;;;1999.90;999.90;;;;;;;;;;5069536;28;20045;-85
2023/10/30 12:42:37;;;;;;;1999.90;999.90;;;;;;;;;;5061719;28;20095;-87
2023/10/30 12:45:07;;;;;;;1999.90;999.90;;;;;;;;;;5065672;28;20049;-84
2023/10/30 12:47:34;;;;;;;1999.90;999.90;;;;;;;;;;5065230;28;20049;-83
2023/10/30 12:50:01;;;;;;;1999.90;999.90;;;;;;;;;;5068702;28;20139;-88
2023/10/30 12:52:28;;;;;;;1999.90;999.90;;;;;;;;;;5064252;28;20094;-85
2023/10/30 12:54:56;;;;;;;1999.90;999.90;;;;;;;;;;5069650;28;20501;-83
2023/10/30 12:57:22;;;;;;;1999.90;999.90;;;;;;;;;;5065096;28;20056;-83
2023/10/30 12:59:49;;;;;;;1999.90;999.90;;;;;;;;;;5070626;28;20052;-82
2023/10/30 13:02:15;;;;;;;1999.90;999.90;;;;;;;;;;5063341;28;20052;-83
2023/10/30 13:04:42;;;;;;;1999.90;999.90;;;;;;;;;;5065389;28;20044;-83
2023/10/30 13:07:08;;;;;;;1999.90;999.90;;;;;;;;;;5071035;28;20053;-81
2023/10/30 13:09:35;;;;;;;1999.90;999.90;;;;;;;;;;5070140;28;20041;-82
2023/10/30 13:12:03;;;;;;;1999.90;999.90;;;;;;;;;;5059289;28;20044;-83
2023/10/30 13:14:29;;;;;;;1999.90;999.90;;;;;;;;;;5068150;28;20056;-82
2023/10/30 13:16:56;;;;;;;1999.90;999.90;;;;;;;;;;5063754;28;20075;-84
2023/10/30 13:19:22;;;;;;;1999.90;999.90;;;;;;;;;;5058716;28;20045;-83
2023/10/30 13:21:49;;;;;;;1999.90;999.90;;;;;;;;;;5064621;28;20767;-84
2023/10/30 13:24:15;;;;;;;1999.90;999.90;;;;;;;;;;5063462;28;20048;-83
2023/10/30 13:26:42;;;;;;;1999.90;999.90;;;;;;;;;;5064020;28;20041;-84
2023/10/30 13:29:10;;;;;;;1999.90;999.90;;;;;;;;;;5065514;28;20045;-83
2023/10/30 13:31:37;;;;;;;1999.90;999.90;;;;;;;;;;5056476;28;20049;-85
2023/10/30 13:34:03;;;;;;;1999.90;999.90;;;;;;;;;;5063164;28;20052;-83
2023/10/30 13:36:31;;;;;;;1999.90;999.90;;;;;;;;;;5064154;28;20490;-83
2023/10/30 13:38:57;;;;;;;1999.90;999.90;;;;;;;;;;5064311;28;20098;-83
2023/10/30 13:41:24;;;;;;;1999.90;999.90;;;;;;;;;;5063545;28;20051;-84